createdAt,value
2022-09-23T00:04:29.869Z,61.10
2022-09-23T00:09:36.309Z,61.12
2022-09-23T00:14:42.506Z,61.45
2022-09-23T00:19:48.700Z,61.36
2022-09-23T00:24:54.935Z,61.13
2022-09-23T00:30:01.185Z,61.14
2022-09-23T00:35:09.209Z,61.06
2022-09-23T00:40:15.496Z,61.38
2022-09-23T00:45:21.705Z,61.39
2022-09-23T00:50:30.775Z,61.12
2022-09-23T00:55:39.475Z,61.27
2022-09-23T01:00:46.778Z,61.27
2022-09-23T01:05:53.315Z,61.21
2022-09-23T01:11:04.437Z,61.47
2022-09-23T01:16:14.802Z,61.10
2022-09-23T01:21:27.086Z,61.56
2022-09-23T01:26:42.358Z,61.27
2022-09-23T01:31:53.548Z,61.10
2022-09-23T01:37:04.426Z,61.23
2022-09-23T01:42:17.290Z,61.33
2022-09-23T01:47:25.245Z,61.22
2022-09-23T01:52:34.179Z,61.33
2022-09-23T01:57:42.033Z,61.20
2022-09-23T02:02:51.289Z,61.30
2022-09-23T02:08:00.220Z,61.35
2022-09-23T02:13:10.111Z,61.21
2022-09-23T02:18:18.336Z,61.23
2022-09-23T02:23:26.846Z,61.21
2022-09-23T02:28:34.453Z,61.36
2022-09-23T02:33:45.224Z,61.52
2022-09-23T02:38:54.509Z,61.37
2022-09-23T02:44:03.326Z,61.31
2022-09-23T02:49:12.926Z,61.40
2022-09-23T02:54:20.702Z,61.33
2022-09-23T02:59:26.900Z,61.45
2022-09-23T03:04:36.730Z,61.57
2022-09-23T03:09:48.811Z,61.12
2022-09-23T03:14:56.526Z,61.49
2022-09-23T03:20:04.701Z,61.30
2022-09-23T03:25:13.905Z,61.31
2022-09-23T03:30:22.071Z,61.30
2022-09-23T03:35:29.621Z,61.37
2022-09-23T03:40:38.629Z,61.16
2022-09-23T03:45:45.390Z,61.45
2022-09-23T03:50:51.592Z,61.49
2022-09-23T03:55:58.749Z,61.29
2022-09-23T04:01:06.138Z,61.45
2022-09-23T04:06:12.687Z,61.32
2022-09-23T04:11:19.051Z,61.41
2022-09-23T04:16:25.811Z,61.35
2022-09-23T04:21:32.285Z,61.73
2022-09-23T04:26:38.974Z,61.22
2022-09-23T04:31:45.291Z,61.64
2022-09-23T04:36:52.345Z,61.30
2022-09-23T04:41:58.871Z,61.46
2022-09-23T04:47:05.707Z,61.52
2022-09-23T04:52:12.431Z,61.52
2022-09-23T04:57:19.121Z,61.56
2022-09-23T05:02:25.830Z,61.47
2022-09-23T05:07:32.161Z,61.37
2022-09-23T05:12:38.564Z,61.48
2022-09-23T05:17:45.145Z,61.63
2022-09-23T05:22:53.107Z,61.40
2022-09-23T05:27:59.641Z,61.09
2022-09-23T05:33:05.901Z,61.37
2022-09-23T05:38:12.283Z,61.31
2022-09-23T05:43:18.711Z,61.15
2022-09-23T05:48:25.211Z,60.96
2022-09-23T05:53:31.794Z,61.26
2022-09-23T05:58:38.956Z,61.19
2022-09-23T06:03:47.491Z,60.99
2022-09-23T06:08:54.241Z,61.11
2022-09-23T06:14:02.841Z,61.01
2022-09-23T06:19:10.819Z,61.16
2022-09-23T06:24:21.232Z,61.13
2022-09-23T06:29:31.546Z,61.00
2022-09-23T06:34:50.244Z,61.18
2022-09-23T06:39:58.254Z,61.08
2022-09-23T06:45:04.516Z,61.12
2022-09-23T06:50:12.751Z,61.28
2022-09-23T06:55:19.133Z,61.41
2022-09-23T07:00:25.637Z,61.16
2022-09-23T07:05:32.087Z,61.33
2022-09-23T07:10:38.851Z,61.18
2022-09-23T07:15:51.130Z,61.31
2022-09-23T07:20:59.183Z,61.24
2022-09-23T07:26:06.231Z,61.36
2022-09-23T07:31:13.821Z,61.34
2022-09-23T07:36:20.863Z,61.28
2022-09-23T07:41:29.171Z,61.22
2022-09-23T07:46:36.793Z,61.38
2022-09-23T07:51:46.421Z,61.30
2022-09-23T07:56:53.041Z,61.18
2022-09-23T08:01:59.692Z,62.53
2022-09-23T08:07:06.953Z,63.60
2022-09-23T08:12:16.403Z,63.79
2022-09-23T08:17:22.722Z,63.11
2022-09-23T08:22:29.195Z,63.18
2022-09-23T08:27:35.833Z,63.31
2022-09-23T08:32:42.466Z,62.59
2022-09-23T08:37:49.321Z,62.78
2022-09-23T08:42:55.925Z,62.43
2022-09-23T08:48:10.790Z,62.20
2022-09-23T08:53:25.452Z,62.43
2022-09-23T08:58:42.568Z,61.95
2022-09-23T09:03:50.609Z,61.93
2022-09-23T09:08:58.672Z,62.30
2022-09-23T09:14:12.668Z,62.00
2022-09-23T09:19:20.682Z,62.30
2022-09-23T09:24:29.952Z,61.89
2022-09-23T09:29:40.252Z,62.03
2022-09-23T09:34:54.488Z,61.62
2022-09-23T09:40:01.322Z,61.48
2022-09-23T09:45:13.432Z,61.31
2022-09-23T09:50:22.483Z,61.14
2022-09-23T09:55:30.028Z,61.13
2022-09-23T10:00:44.868Z,61.38
2022-09-23T10:05:52.566Z,60.85
2022-09-23T10:11:03.651Z,61.10
2022-09-23T10:16:10.512Z,61.03
2022-09-23T10:21:17.993Z,61.14
2022-09-23T10:26:31.242Z,60.84
2022-09-23T10:31:38.693Z,60.94
2022-09-23T10:36:45.203Z,60.87
2022-09-23T10:42:12.896Z,61.00
2022-09-23T10:47:23.938Z,61.06
2022-09-23T10:52:36.601Z,60.98
2022-09-23T10:57:52.587Z,61.24
2022-09-23T11:03:10.064Z,61.05
2022-09-23T11:08:36.757Z,60.96
2022-09-23T11:13:54.601Z,60.85
2022-09-23T11:19:32.622Z,60.60
2022-09-23T11:24:52.480Z,60.96
2022-09-23T11:30:06.353Z,60.79
2022-09-23T11:35:20.810Z,60.84
2022-09-23T11:40:32.444Z,61.15
2022-09-23T11:45:42.733Z,60.91
2022-09-23T11:50:52.066Z,60.73
2022-09-23T11:56:02.540Z,60.85
2022-09-23T12:01:10.905Z,60.64
2022-09-23T12:06:20.924Z,60.43
2022-09-23T12:11:57.134Z,60.58
2022-09-23T12:17:16.921Z,60.75
2022-09-23T12:22:31.776Z,60.47
2022-09-23T12:33:56.348Z,60.38
2022-09-23T12:39:04.231Z,60.56
2022-09-23T12:50:51.191Z,60.65
2022-09-23T12:56:00.090Z,60.35
2022-09-23T13:07:16.754Z,60.29
2022-09-23T13:12:26.640Z,60.33
2022-09-23T13:17:35.188Z,60.21
2022-09-23T13:28:56.526Z,59.94
2022-09-23T13:34:04.629Z,59.97
2022-09-23T13:39:17.556Z,60.11
2022-09-23T13:50:35.164Z,60.02
2022-09-23T13:55:41.845Z,60.27
2022-09-23T14:00:48.515Z,60.12
2022-09-23T14:06:31.494Z,59.98
2022-09-23T14:11:38.217Z,60.18
2022-09-23T14:16:45.051Z,60.27
2022-09-23T14:21:53.278Z,60.16
2022-09-23T14:33:12.295Z,59.78
2022-09-23T14:38:42.556Z,59.69
2022-09-23T14:50:11.608Z,59.97
2022-09-23T14:59:34.574Z,59.74
2022-09-23T15:11:08.439Z,59.99
2022-09-23T15:16:17.135Z,60.15
2022-09-23T15:21:24.116Z,60.24
2022-09-23T15:26:49.394Z,60.35
2022-09-23T15:31:56.280Z,60.17
2022-09-23T15:37:03.426Z,60.25
2022-09-23T15:42:10.722Z,60.32
2022-09-23T15:53:55.252Z,60.54
2022-09-23T15:59:02.056Z,60.44
2022-09-23T16:04:08.763Z,60.41
2022-09-23T16:09:31.958Z,60.55
2022-09-23T16:14:38.371Z,60.61
2022-09-23T16:19:45.008Z,60.56
2022-09-23T16:24:51.835Z,60.61
2022-09-23T16:35:45.988Z,60.72
2022-09-23T16:40:53.312Z,60.82
2022-09-23T16:46:00.251Z,60.93
2022-09-23T16:57:21.571Z,60.92
2022-09-23T17:02:45.563Z,60.74
2022-09-23T17:07:51.954Z,60.92
2022-09-23T17:13:22.184Z,60.94
2022-09-23T17:18:29.019Z,60.81
2022-09-23T17:23:36.192Z,60.89
2022-09-23T17:28:42.591Z,60.78
2022-09-23T17:40:00.571Z,61.17
2022-09-23T17:45:07.491Z,61.15
2022-09-23T17:50:15.202Z,60.74
2022-09-23T17:55:54.420Z,61.00
2022-09-23T18:02:30.352Z,60.86
2022-09-23T18:07:39.550Z,61.16
2022-09-23T18:13:15.729Z,60.80
2022-09-23T18:18:22.210Z,60.86
2022-09-23T18:23:28.651Z,61.05
2022-09-23T18:34:22.011Z,61.11
2022-09-23T18:39:28.393Z,61.18
2022-09-23T18:44:34.763Z,61.07
2022-09-23T18:49:58.671Z,61.13
2022-09-23T19:01:14.605Z,60.99
2022-09-23T19:06:21.387Z,60.97
2022-09-23T19:17:55.014Z,61.11
2022-09-23T19:23:01.812Z,61.14
2022-09-23T19:28:08.662Z,61.16
2022-09-23T19:39:24.469Z,61.20
2022-09-23T19:44:31.092Z,61.13
2022-09-23T19:56:03.563Z,61.19
2022-09-23T20:01:10.222Z,61.10
2022-09-23T20:06:17.302Z,61.14
2022-09-23T20:12:00.591Z,61.29
2022-09-23T20:17:13.971Z,61.16
2022-09-23T20:22:30.807Z,61.23
2022-09-23T20:27:39.652Z,60.84
2022-09-23T20:32:45.968Z,61.23
2022-09-23T20:38:32.952Z,61.09
2022-09-23T20:43:40.111Z,61.12
2022-09-23T20:48:47.853Z,61.36
2022-09-23T20:53:54.609Z,61.05
2022-09-23T20:59:33.302Z,61.18
2022-09-23T21:04:39.745Z,61.19
2022-09-23T21:09:46.189Z,61.02
2022-09-23T21:14:52.931Z,60.98
2022-09-23T21:20:02.125Z,61.21
2022-09-23T21:25:41.160Z,61.14
2022-09-23T21:30:51.819Z,61.12
2022-09-23T21:36:04.062Z,61.22
2022-09-23T21:41:11.899Z,61.18
2022-09-23T21:46:55.077Z,61.29
2022-09-23T21:52:01.723Z,61.38
2022-09-23T21:57:08.521Z,61.42
2022-09-23T22:02:15.005Z,61.16
2022-09-23T22:07:48.193Z,61.38
2022-09-23T22:12:54.433Z,61.19
2022-09-23T22:18:00.951Z,61.13
2022-09-23T22:23:07.971Z,61.34
2022-09-23T22:34:51.106Z,61.10
2022-09-23T22:39:58.270Z,61.12
2022-09-23T22:45:20.487Z,61.03
2022-09-23T22:50:27.105Z,61.38
2022-09-23T22:55:33.544Z,61.33
2022-09-23T23:00:40.131Z,61.36
2022-09-23T23:05:47.481Z,61.48
2022-09-23T23:17:09.645Z,61.25
2022-09-23T23:22:16.121Z,61.23
2022-09-23T23:27:22.487Z,61.24
2022-09-23T23:32:55.415Z,61.21
2022-09-23T23:38:01.855Z,61.15
2022-09-23T23:43:08.280Z,61.07
2022-09-23T23:48:14.859Z,61.20
2022-09-23T23:59:25.180Z,61.13
